Time;durP1;ratioP1;P1;durP2;ratioP2;P2;SDS_P1;SDS_P2;PMS_P1;PMS_P2;Temp;Humidity;BMP_temperature;BMP_pressure;BME280_temperature;BME280_humidity;BME280_pressure;Samples;Min_cycle;Max_cycle;Signal;HPM_P1;HPM_P2
2023/10/30 00:02:14;;;;;;;9.60;3.00;;;11.30;16.50;;;;;;5036784;28;20578;-58
2023/10/30 00:04:41;;;;;;;5.43;2.63;;;11.30;25.80;;;;;;5036835;28;20465;-57
2023/10/30 00:07:08;;;;;;;10.13;2.40;;;11.20;54.60;;;;;;5036289;28;20527;-57
2023/10/30 00:09:35;;;;;;;11.80;3.50;;;11.20;66.50;;;;;;5036499;28;20538;-58
2023/10/30 00:12:03;;;;;;;7.70;2.77;;;11.20;99.90;;;;;;5036887;28;20554;-57
2023/10/30 00:14:32;;;;;;;8.50;2.50;;;11.20;99.90;;;;;;5036601;28;20888;-57
2023/10/30 00:16:59;;;;;;;7.33;3.50;;;11.30;96.50;;;;;;5037181;28;20433;-57
2023/10/30 00:19:26;;;;;;;13.03;2.97;;;11.30;75.60;;;;;;5036713;28;20434;-57
2023/10/30 00:21:53;;;;;;;8.03;3.57;;;11.30;66.10;;;;;;5036234;28;20474;-57
2023/10/30 00:24:23;;;;;;;8.70;3.60;;;11.30;66.60;;;;;;5036290;28;20458;-57
2023/10/30 00:26:50;;;;;;;8.47;3.30;;;11.30;59.50;;;;;;5036694;28;20437;-57
2023/10/30 00:29:18;;;;;;;9.87;3.20;;;11.30;93.30;;;;;;5036026;28;20463;-57
2023/10/30 00:31:47;;;;;;;4.93;2.43;;;11.30;53.40;;;;;;5035733;28;20879;-57
2023/10/30 00:34:14;;;;;;;4.60;2.50;;;11.30;54.40;;;;;;5036132;28;20519;-57
2023/10/30 00:36:41;;;;;;;4.73;2.90;;;11.30;39.00;;;;;;5035633;28;20470;-58
2023/10/30 00:39:08;;;;;;;6.90;2.50;;;11.30;31.60;;;;;;5036323;28;20546;-57
2023/10/30 00:41:35;;;;;;;8.67;2.80;;;11.30;46.30;;;;;;5035744;28;20495;-57
2023/10/30 00:44:03;;;;;;;8.60;3.10;;;11.30;70.20;;;;;;5036340;28;20459;-58
2023/10/30 00:46:30;;;;;;;4.70;2.50;;;11.30;99.90;;;;;;5036374;28;20455;-58
2023/10/30 00:48:58;;;;;;;8.03;3.20;;;11.30;84.90;;;;;;5036266;28;20509;-57
2023/10/30 00:51:25;;;;;;;10.97;2.90;;;11.30;92.80;;;;;;5036114;28;20459;-57
2023/10/30 00:53:53;;;;;;;12.37;3.07;;;11.40;99.90;;;;;;5035713;28;20466;-58
2023/10/30 00:56:20;;;;;;;10.33;3.37;;;11.40;99.90;;;;;;5036118;28;20466;-55
2023/10/30 00:58:47;;;;;;;5.23;2.50;;;11.40;99.90;;;;;;5036249;28;20504;-58
2023/10/30 01:01:17;;;;;;;13.07;3.10;;;11.40;99.90;;;;;;5035857;28;20470;-57
2023/10/30 01:03:44;;;;;;;7.53;2.50;;;11.40;99.90;;;;;;5035702;28;20467;-57
2023/10/30 01:06:12;;;;;;;10.30;3.20;;;11.40;99.90;;;;;;5035767;28;20463;-57
2023/10/30 01:08:40;;;;;;;9.50;2.87;;;11.50;99.90;;;;;;5035614;28;20491;-57
2023/10/30 01:11:07;;;;;;;9.17;3.00;;;11.50;99.90;;;;;;5035817;28;20459;-57
2023/10/30 01:13:36;;;;;;;9.80;3.70;;;11.50;99.90;;;;;;5035258;28;20434;-58
2023/10/30 01:16:05;;;;;;;6.93;3.20;;;11.50;99.90;;;;;;5035484;28;20463;-56
2023/10/30 01:18:32;;;;;;;7.40;2.83;;;11.50;99.90;;;;;;5035496;28;20520;-58
2023/10/30 01:20:59;;;;;;;11.67;3.00;;;11.50;99.90;;;;;;5035234;28;20915;-57
2023/10/30 01:23:28;;;;;;;9.33;3.00;;;11.50;99.90;;;;;;5035563;28;20456;-58
2023/10/30 01:25:55;;;;;;;6.80;2.53;;;11.50;99.90;;;;;;5035662;28;20459;-56
2023/10/30 01:28:22;;;;;;;8.80;3.60;;;11.60;99.90;;;;;;5035119;28;20477;-58
2023/10/30 01:30:49;;;;;;;13.67;3.00;;;11.50;99.90;;;;;;5034991;28;20460;-57
2023/10/30 01:33:16;;;;;;;7.40;3.57;;;11.60;99.90;;;;;;5036027;28;20496;-57
2023/10/30 01:35:44;;;;;;;10.80;3.53;;;11.50;99.90;;;;;;5035140;28;20586;-59
2023/10/30 01:38:11;;;;;;;10.40;3.10;;;11.50;99.90;;;;;;5035842;28;20442;-58
2023/10/30 01:40:47;;;;;;;21.07;3.50;;;11.50;99.90;;;;;;5035515;28;20895;-57
2023/10/30 01:43:14;;;;;;;12.73;2.67;;;11.50;99.90;;;;;;5035473;28;20782;-57
2023/10/30 01:45:41;;;;;;;6.57;2.90;;;11.50;99.90;;;;;;5035724;28;20460;-59
2023/10/30 01:48:09;;;;;;;8.97;3.30;;;11.60;99.90;;;;;;5035264;28;20460;-57
2023/10/30 01:50:37;;;;;;;8.70;3.80;;;11.60;99.90;;;;;;5035209;28;20474;-58
2023/10/30 01:53:05;;;;;;;10.80;3.20;;;11.60;99.90;;;;;;5035307;28;20467;-57
2023/10/30 01:55:32;;;;;;;14.90;3.00;;;11.60;99.90;;;;;;5034789;28;20459;-57
2023/10/30 01:58:01;;;;;;;11.77;4.10;;;11.70;99.90;;;;;;5035064;28;20471;-57
2023/10/30 02:00:28;;;;;;;8.40;3.37;;;11.70;97.90;;;;;;5034848;28;20467;-57
2023/10/30 02:02:58;;;;;;;6.47;2.80;;;11.70;99.90;;;;;;5034376;28;20943;-57
2023/10/30 02:05:25;;;;;;;5.80;2.87;;;11.60;95.50;;;;;;5035176;28;20915;-58
2023/10/30 02:07:52;;;;;;;9.10;3.17;;;11.60;96.20;;;;;;5034824;28;20761;-57
2023/10/30 02:10:19;;;;;;;4.93;2.70;;;11.70;72.10;;;;;;5034952;28;20542;-57
2023/10/30 02:12:50;;;;;;;10.40;2.70;;;11.70;62.70;;;;;;5035058;28;20462;-58
2023/10/30 02:15:18;;;;;;;7.80;3.10;;;11.70;37.40;;;;;;5035151;28;20468;-57
2023/10/30 02:17:46;;;;;;;9.53;3.07;;;11.70;23.00;;;;;;5034710;28;20951;-55
2023/10/30 02:20:13;;;;;;;10.93;3.10;;;11.70;1.00;;;;;;5034604;28;20771;-57
2023/10/30 02:22:40;;;;;;;11.80;2.83;;;11.70;1.00;;;;;;5034466;28;20491;-57
2023/10/30 02:25:08;;;;;;;11.03;3.30;;;11.70;29.20;;;;;;5034482;28;20466;-58
2023/10/30 02:27:37;;;;;;;6.80;2.83;;;11.70;91.50;;;;;;5034389;28;20909;-57
2023/10/30 02:30:05;;;;;;;6.60;2.77;;;11.70;99.90;;;;;;5033713;28;20460;-57
2023/10/30 02:32:32;;;;;;;9.77;2.93;;;11.60;99.90;;;;;;5034366;28;20919;-57
2023/10/30 02:34:59;;;;;;;9.77;3.20;;;11.70;99.90;;;;;;5034670;28;20887;-57
2023/10/30 02:37:26;;;;;;;6.50;2.63;;;11.70;99.90;;;;;;5034463;28;20460;-57
2023/10/30 02:39:53;;;;;;;7.60;3.00;;;11.70;99.90;;;;;;5034304;28;20482;-57
2023/10/30 02:42:21;;;;;;;6.40;2.60;;;11.70;99.90;;;;;;5034372;28;20502;-57
2023/10/30 02:44:49;;;;;;;8.80;2.60;;;11.70;99.90;;;;;;5034606;28;20459;-57
2023/10/30 02:47:16;;;;;;;8.13;2.80;;;11.70;99.90;;;;;;5034259;28;20455;-55
2023/10/30 02:49:43;;;;;;;9.07;3.30;;;11.60;99.90;;;;;;5033910;28;20460;-57
2023/10/30 02:52:11;;;;;;;11.50;4.00;;;11.70;99.90;;;;;;5034099;28;20462;-57
2023/10/30 02:54:37;;;;;;;6.00;2.60;;;11.60;99.90;;;;;;5034306;28;20459;-57
2023/10/30 02:57:04;;;;;;;11.73;3.43;;;11.60;99.90;;;;;;5034471;28;20466;-57
2023/10/30 02:59:32;;;;;;;11.83;2.50;;;11.60;99.90;;;;;;5033399;28;20510;-57
2023/10/30 03:02:00;;;;;;;7.23;3.00;;;11.60;99.90;;;;;;5034210;28;20495;-57
2023/10/30 03:04:27;;;;;;;5.83;2.90;;;11.60;99.90;;;;;;5034033;28;20459;-57
2023/10/30 03:06:54;;;;;;;10.60;2.77;;;11.60;99.90;;;;;;5033818;28;20559;-58
2023/10/30 03:09:21;;;;;;;8.77;2.90;;;11.60;99.90;;;;;;5034021;28;20460;-57
2023/10/30 03:11:48;;;;;;;7.80;3.27;;;11.70;99.90;;;;;;5033128;28;20754;-58
2023/10/30 03:14:16;;;;;;;11.30;3.30;;;11.60;99.90;;;;;;5034162;28;20749;-57
2023/10/30 03:16:43;;;;;;;5.43;2.83;;;11.60;99.90;;;;;;5034111;28;20481;-58
2023/10/30 03:19:11;;;;;;;8.93;2.70;;;11.60;99.90;;;;;;5034095;28;20534;-58
2023/10/30 03:21:38;;;;;;;9.07;3.17;;;11.60;99.90;;;;;;5033870;28;20871;-58
2023/10/30 03:24:07;;;;;;;10.83;3.00;;;11.60;99.90;;;;;;5033724;28;20463;-58
2023/10/30 03:26:34;;;;;;;8.53;3.23;;;11.50;99.90;;;;;;5034248;28;20883;-58
2023/10/30 03:29:01;;;;;;;9.43;2.80;;;11.50;99.90;;;;;;5033967;28;20438;-57
2023/10/30 03:31:29;;;;;;;6.67;3.00;;;11.50;99.90;;;;;;5033312;28;20438;-58
2023/10/30 03:33:56;;;;;;;7.90;3.10;;;11.50;99.90;;;;;;5034004;28;20459;-57
2023/10/30 03:36:25;;;;;;;14.33;2.80;;;11.50;99.90;;;;;;5033575;28;20462;-57
2023/10/30 03:38:53;;;;;;;6.77;2.93;;;11.50;99.90;;;;;;5034087;28;20459;-57
2023/10/30 03:41:20;;;;;;;11.57;3.43;;;11.50;99.90;;;;;;5033715;28;20459;-58
2023/10/30 03:43:48;;;;;;;8.50;3.60;;;11.50;99.90;;;;;;5034598;28;20455;-57
2023/10/30 03:46:15;;;;;;;8.13;3.00;;;11.50;99.90;;;;;;5036564;28;20459;-57
2023/10/30 03:48:42;;;;;;;8.43;3.03;;;11.50;99.90;;;;;;5037159;28;20887;-57
2023/10/30 03:51:09;;;;;;;6.37;2.60;;;11.50;99.90;;;;;;5037421;28;20952;-57
2023/10/30 03:53:37;;;;;;;9.10;2.87;;;11.50;99.90;;;;;;5036884;28;20440;-57
2023/10/30 03:56:06;;;;;;;7.33;2.60;;;11.50;99.90;;;;;;5036512;28;20437;-58
2023/10/30 03:58:33;;;;;;;8.30;2.60;;;11.50;99.90;;;;;;5037290;28;20906;-57
2023/10/30 04:01:06;;;;;;;8.70;3.20;;;11.50;99.90;;;;;;5037142;28;20469;-57
2023/10/30 04:03:33;;;;;;;9.43;2.70;;;11.50;99.90;;;;;;5036537;28;20793;-58
2023/10/30 04:06:04;;;;;;;11.30;3.00;;;11.50;99.90;;;;;;5036662;28;20476;-57
2023/10/30 04:08:31;;;;;;;9.33;3.10;;;11.50;99.90;;;;;;5035736;28;20777;-57
2023/10/30 04:11:01;;;;;;;11.93;2.80;;;11.40;99.90;;;;;;5036917;28;20915;-58
2023/10/30 04:13:28;;;;;;;6.53;2.63;;;11.40;99.90;;;;;;5036419;28;20891;-57
2023/10/30 04:15:55;;;;;;;7.00;2.70;;;11.50;99.90;;;;;;5036131;28;20554;-57
2023/10/30 04:18:22;;;;;;;11.70;4.03;;;11.40;99.90;;;;;;5036650;28;20884;-57
2023/10/30 04:20:49;;;;;;;10.80;3.00;;;11.40;99.90;;;;;;5037032;28;20736;-56
2023/10/30 04:23:16;;;;;;;11.10;3.50;;;11.40;99.90;;;;;;5036328;28;20487;-57
2023/10/30 04:25:44;;;;;;;11.63;3.00;;;11.40;99.90;;;;;;5036261;28;20462;-57
2023/10/30 04:28:12;;;;;;;11.27;3.23;;;11.40;99.90;;;;;;5036295;28;20903;-58
2023/10/30 04:30:39;;;;;;;6.93;2.27;;;11.40;99.90;;;;;;5036866;28;20459;-57
2023/10/30 04:33:06;;;;;;;11.30;3.10;;;11.40;99.90;;;;;;5036400;28;20470;-57
2023/10/30 04:35:33;;;;;;;11.83;3.20;;;11.40;99.90;;;;;;5036011;28;20766;-58
2023/10/30 04:38:00;;;;;;;7.23;2.50;;;11.40;99.90;;;;;;5036351;28;20477;-58
2023/10/30 04:40:28;;;;;;;12.10;3.90;;;11.30;99.90;;;;;;5036225;28;20468;-58
2023/10/30 04:42:55;;;;;;;10.30;2.70;;;11.40;99.90;;;;;;5036117;28;20491;-57
2023/10/30 04:45:23;;;;;;;7.70;2.83;;;11.30;99.90;;;;;;5036009;28;20459;-57
2023/10/30 04:47:50;;;;;;;15.47;3.70;;;11.40;99.90;;;;;;5036174;28;20460;-58
2023/10/30 04:50:20;;;;;;;9.43;3.60;;;11.40;99.90;;;;;;5035907;28;20466;-57
2023/10/30 04:52:47;;;;;;;9.93;3.50;;;11.40;99.90;;;;;;5036247;28;20459;-58
2023/10/30 04:55:14;;;;;;;18.97;3.00;;;11.40;99.90;;;;;;5034801;28;20487;-57
2023/10/30 04:57:41;;;;;;;8.10;3.43;;;11.30;99.90;;;;;;5036007;28;20463;-58
2023/10/30 05:00:09;;;;;;;8.30;2.63;;;11.30;99.90;;;;;;5035458;28;20459;-57
2023/10/30 05:02:38;;;;;;;6.93;2.80;;;11.30;99.90;;;;;;5035408;28;20498;-58
2023/10/30 05:05:05;;;;;;;9.23;3.10;;;11.30;99.90;;;;;;5036003;28;20455;-57
2023/10/30 05:07:32;;;;;;;8.70;3.47;;;11.30;99.90;;;;;;5035078;28;20953;-57
2023/10/30 05:10:00;;;;;;;8.50;3.30;;;11.30;99.90;;;;;;5035690;28;20566;-57
2023/10/30 05:12:27;;;;;;;10.93;3.03;;;11.30;1.00;;;;;;5035663;28;20430;-58
2023/10/30 05:14:54;;;;;;;8.37;2.87;;;11.20;1.00;;;;;;5035933;28;20466;-57
2023/10/30 05:17:21;;;;;;;8.47;3.77;;;11.20;1.00;;;;;;5035435;28;20912;-57
2023/10/30 05:19:51;;;;;;;7.80;2.90;;;11.20;1.00;;;;;;5035263;28;20461;-58
2023/10/30 05:22:18;;;;;;;10.37;3.67;;;11.20;1.00;;;;;;5034489;28;20491;-57
2023/10/30 05:24:45;;;;;;;11.43;4.00;;;11.20;1.00;;;;;;5034764;28;20898;-57
2023/10/30 05:27:12;;;;;;;7.53;3.50;;;11.20;1.00;;;;;;5035659;28;20438;-57
2023/10/30 05:29:39;;;;;;;13.73;3.77;;;11.20;1.00;;;;;;5034867;28;20460;-58
2023/10/30 05:32:07;;;;;;;8.07;3.47;;;11.20;1.00;;;;;;5034974;28;20469;-57
2023/10/30 05:34:34;;;;;;;6.50;3.50;;;11.20;1.00;;;;;;5036195;28;20880;-57
2023/10/30 05:37:05;;;;;;;10.37;3.20;;;11.10;1.00;;;;;;5055416;28;20746;-59
2023/10/30 05:39:33;;;;;;;9.60;3.53;;;11.10;1.00;;;;;;5054195;28;20513;-57
2023/10/30 05:42:00;;;;;;;7.30;2.83;;;11.10;1.00;;;;;;5034921;28;20459;-57
2023/10/30 05:44:30;;;;;;;10.73;3.03;;;11.10;1.00;;;;;;5035251;28;20543;-57
2023/10/30 05:46:58;;;;;;;12.13;4.00;;;11.10;1.00;;;;;;5035703;28;20470;-57
2023/10/30 05:49:26;;;;;;;9.40;3.80;;;11.10;1.00;;;;;;5034168;28;20455;-57
2023/10/30 05:51:53;;;;;;;10.70;3.60;;;11.10;1.00;;;;;;5035062;28;20463;-57
2023/10/30 05:54:22;;;;;;;4.67;2.70;;;11.10;1.00;;;;;;5034911;28;20892;-56
2023/10/30 05:56:49;;;;;;;12.00;3.37;;;11.00;1.00;;;;;;5034821;28;20445;-57
2023/10/30 05:59:17;;;;;;;10.60;3.83;;;11.00;1.00;;;;;;5034966;28;20445;-57
2023/10/30 06:01:44;;;;;;;8.30;3.30;;;11.10;1.00;;;;;;5034658;28;20515;-57
2023/10/30 06:04:12;;;;;;;11.73;2.90;;;11.00;1.00;;;;;;5034220;28;20494;-57
2023/10/30 06:06:40;;;;;;;8.03;3.60;;;11.10;1.00;;;;;;5034497;28;20463;-57
2023/10/30 06:09:07;;;;;;;6.53;3.10;;;11.10;1.00;;;;;;5033966;28;20506;-58
2023/10/30 06:11:36;;;;;;;11.73;2.83;;;11.00;1.00;;;;;;5034636;28;20463;-58
2023/10/30 06:14:03;;;;;;;6.93;3.30;;;11.00;31.30;;;;;;5033684;28;20460;-58
2023/10/30 06:16:30;;;;;;;7.63;3.50;;;11.00;99.90;;;;;;5032612;28;20463;-57
2023/10/30 06:18:57;;;;;;;12.13;3.30;;;11.00;99.90;;;;;;5033516;28;20459;-58
2023/10/30 06:21:24;;;;;;;9.10;3.07;;;11.00;99.90;;;;;;5033516;28;20529;-57
2023/10/30 06:23:52;;;;;;;7.07;3.10;;;11.00;99.90;;;;;;5032475;28;20978;-58
2023/10/30 06:26:19;;;;;;;10.73;3.10;;;11.00;99.90;;;;;;5032613;28;20769;-56
2023/10/30 06:28:48;;;;;;;9.30;3.97;;;11.00;99.90;;;;;;5033722;28;20935;-57
2023/10/30 06:31:16;;;;;;;7.57;3.17;;;11.00;99.90;;;;;;5034250;28;20524;-57
2023/10/30 06:33:44;;;;;;;7.30;2.80;;;11.00;99.90;;;;;;5033748;28;20441;-58
2023/10/30 06:36:11;;;;;;;11.57;3.03;;;11.00;99.90;;;;;;5033931;28;20459;-58
2023/10/30 06:38:38;;;;;;;6.60;3.03;;;11.00;99.90;;;;;;5034043;28;20459;-57
2023/10/30 06:41:06;;;;;;;6.93;2.87;;;11.00;99.90;;;;;;5033952;28;20463;-59
2023/10/30 06:43:34;;;;;;;5.47;2.93;;;11.00;99.90;;;;;;5033571;28;20509;-57
2023/10/30 06:46:04;;;;;;;10.53;3.70;;;11.10;99.90;;;;;;5033431;28;20463;-58
2023/10/30 06:48:31;;;;;;;9.83;3.60;;;11.00;99.90;;;;;;5032935;28;20463;-60
2023/10/30 06:50:58;;;;;;;8.13;3.37;;;11.00;99.90;;;;;;5033493;28;20463;-59
2023/10/30 06:53:26;;;;;;;5.57;2.93;;;11.00;99.90;;;;;;5033809;28;20451;-59
2023/10/30 06:55:53;;;;;;;10.30;3.80;;;11.00;99.90;;;;;;5033715;28;20464;-58
2023/10/30 06:58:22;;;;;;;10.80;4.40;;;11.00;99.90;;;;;;5034080;28;20463;-58
2023/10/30 07:00:50;;;;;;;7.23;3.53;;;11.00;99.90;;;;;;5033561;28;20838;-58
2023/10/30 07:03:18;;;;;;;8.10;3.87;;;10.90;99.90;;;;;;5033520;28;20526;-58
2023/10/30 07:05:46;;;;;;;12.60;4.93;;;11.00;1.00;;;;;;5032496;28;20481;-58
2023/10/30 07:08:13;;;;;;;13.97;4.00;;;10.90;1.00;;;;;;5031809;28;21031;-58
2023/10/30 07:10:40;;;;;;;9.70;3.73;;;10.90;1.00;;;;;;5032707;28;20497;-58
2023/10/30 07:13:08;;;;;;;7.83;3.40;;;10.90;1.00;;;;;;5032571;28;20806;-58
2023/10/30 07:15:35;;;;;;;6.10;3.73;;;10.90;1.00;;;;;;5031907;28;20483;-59
2023/10/30 07:18:02;;;;;;;13.60;3.97;;;10.90;1.00;;;;;;5032978;28;20462;-58
2023/10/30 07:20:31;;;;;;;12.33;4.27;;;10.90;1.00;;;;;;5036860;28;20459;-57
2023/10/30 07:22:58;;;;;;;5.30;3.50;;;10.90;1.00;;;;;;5036849;28;20483;-58
2023/10/30 07:25:25;;;;;;;9.10;3.70;;;10.90;1.00;;;;;;5036322;28;20469;-58
2023/10/30 07:27:52;;;;;;;9.77;4.30;;;11.00;1.00;;;;;;5035728;28;20554;-57
2023/10/30 07:30:19;;;;;;;8.37;3.90;;;11.00;1.00;;;;;;5036361;28;20490;-58
2023/10/30 07:32:48;;;;;;;8.53;4.03;;;11.00;1.00;;;;;;5035723;28;20802;-58
2023/10/30 07:35:15;;;;;;;5.20;3.70;;;11.00;1.00;;;;;;5035520;28;20896;-59
2023/10/30 07:37:44;;;;;;;6.80;3.47;;;11.10;1.00;;;;;;5036359;28;20438;-58
2023/10/30 07:40:12;;;;;;;8.70;3.93;;;11.10;1.00;;;;;;5035890;28;20898;-59
2023/10/30 07:42:40;;;;;;;12.70;3.97;;;11.20;1.00;;;;;;5035531;28;20504;-59
2023/10/30 07:45:08;;;;;;;7.50;3.93;;;11.20;1.00;;;;;;5035506;28;20524;-56
2023/10/30 07:47:36;;;;;;;7.30;4.00;;;11.30;1.00;;;;;;5034947;28;20459;-58
2023/10/30 07:50:04;;;;;;;5.50;3.33;;;11.30;1.00;;;;;;5034235;28;20846;-59
2023/10/30 07:52:31;;;;;;;8.73;4.60;;;11.40;1.00;;;;;;5034064;28;20519;-58
2023/10/30 07:55:01;;;;;;;6.93;4.30;;;11.40;99.90;;;;;;5034481;28;20469;-58
2023/10/30 07:57:29;;;;;;;9.10;4.67;;;11.50;99.90;;;;;;5035020;28;20463;-58
2023/10/30 07:59:56;;;;;;;11.20;3.90;;;11.60;99.90;;;;;;5034867;28;20470;-58
2023/10/30 08:02:25;;;;;;;7.50;4.43;;;11.60;99.90;;;;;;5035507;28;20561;-58
2023/10/30 08:04:52;;;;;;;6.87;3.77;;;11.70;99.90;;;;;;5036539;28;20781;-58
2023/10/30 08:07:19;;;;;;;7.50;4.50;;;11.80;99.90;;;;;;5036586;28;20490;-58
2023/10/30 08:09:46;;;;;;;12.40;3.93;;;12.00;99.90;;;;;;5036820;28;20463;-58
2023/10/30 08:12:15;;;;;;;9.00;4.00;;;12.10;1.00;;;;;;5036587;28;20471;-58
2023/10/30 08:14:42;;;;;;;7.00;4.03;;;12.20;1.00;;;;;;5035998;28;20856;-58
2023/10/30 08:17:10;;;;;;;6.87;5.03;;;12.30;99.90;;;;;;5037011;28;20554;-58
2023/10/30 08:19:37;;;;;;;7.23;3.63;;;12.40;99.90;;;;;;5035951;28;20467;-59
2023/10/30 08:22:04;;;;;;;6.90;3.83;;;12.60;99.90;;;;;;5034373;28;20455;-58
2023/10/30 08:24:31;;;;;;;10.03;4.03;;;12.80;99.90;;;;;;5034588;28;20494;-57
2023/10/30 08:26:58;;;;;;;8.43;3.50;;;12.90;99.90;;;;;;5034636;28;20561;-58
2023/10/30 08:29:27;;;;;;;6.53;4.10;;;13.00;1.00;;;;;;5034353;28;20583;-58
2023/10/30 08:31:54;;;;;;;6.30;3.87;;;13.10;1.00;;;;;;5034399;28;20851;-58
2023/10/30 08:34:21;;;;;;;12.53;4.33;;;13.20;1.00;;;;;;5034885;28;20958;-60
2023/10/30 08:36:49;;;;;;;7.60;4.00;;;13.30;1.00;;;;;;5034885;28;20519;-57
2023/10/30 08:39:16;;;;;;;6.27;3.70;;;13.40;99.90;;;;;;5035846;28;20474;-58
2023/10/30 08:41:44;;;;;;;5.30;3.30;;;13.60;99.90;;;;;;5036045;28;20758;-56
2023/10/30 08:44:11;;;;;;;7.80;3.50;;;13.70;99.90;;;;;;5016476;28;20528;-58
2023/10/30 08:46:39;;;;;;;5.27;3.30;;;13.80;1.00;;;;;;5016915;28;20456;-58
2023/10/30 08:49:07;;;;;;;5.23;3.40;;;13.80;75.80;;;;;;5016092;28;20467;-55
2023/10/30 08:51:41;;;;;;;7.73;3.30;;;14.00;1.00;;;;;;5016514;28;20465;-58
2023/10/30 08:54:08;;;;;;;7.10;3.90;;;14.10;1.00;;;;;;5016109;28;20813;-58
2023/10/30 08:56:36;;;;;;;7.40;3.60;;;14.30;1.00;;;;;;5016356;28;20486;-58
2023/10/30 08:59:04;;;;;;;7.60;3.30;;;14.20;99.90;;;;;;5016245;28;20943;-57
2023/10/30 09:01:32;;;;;;;5.27;3.57;;;14.20;99.90;;;;;;5016011;28;20908;-57
2023/10/30 09:04:01;;;;;;;10.40;3.07;;;14.20;99.90;;;;;;5016334;28;20939;-59
2023/10/30 09:06:28;;;;;;;6.17;3.57;;;14.30;99.90;;;;;;5015936;28;20518;-59
2023/10/30 09:08:55;;;;;;;6.00;3.30;;;14.40;99.90;;;;;;5015454;28;20488;-58
2023/10/30 09:11:23;;;;;;;6.37;3.50;;;14.50;99.90;;;;;;5016215;28;20752;-59
2023/10/30 09:13:50;;;;;;;4.70;3.17;;;14.50;1.00;;;;;;5016269;28;20463;-58
2023/10/30 09:16:17;;;;;;;7.73;2.77;;;14.60;1.00;;;;;;5015708;28;20956;-58
2023/10/30 09:18:44;;;;;;;6.00;3.17;;;14.70;1.00;;;;;;5016168;28;20503;-58
2023/10/30 09:21:13;;;;;;;5.20;2.63;;;14.80;1.00;;;;;;5015797;28;20460;-58
2023/10/30 09:23:43;;;;;;;4.90;2.90;;;14.90;1.00;;;;;;5015398;28;20496;-58
2023/10/30 09:26:11;;;;;;;4.50;2.70;;;14.80;1.00;;;;;;5015515;28;20509;-59
2023/10/30 09:28:38;;;;;;;4.07;2.63;;;14.80;1.00;;;;;;5015293;28;20467;-57
2023/10/30 09:31:05;;;;;;;5.30;2.60;;;14.70;1.00;;;;;;5028257;28;20478;-57
2023/10/30 09:33:33;;;;;;;4.10;2.20;;;14.70;1.00;;;;;;5033906;28;20558;-58
2023/10/30 09:36:00;;;;;;;3.73;2.60;;;14.70;99.90;;;;;;5034987;28;20459;-58
2023/10/30 09:38:29;;;;;;;5.07;2.73;;;14.80;99.90;;;;;;5034922;28;20467;-58
2023/10/30 09:41:03;;;;;;;6.30;2.77;;;14.80;99.90;;;;;;5033523;28;20469;-59
2023/10/30 09:43:33;;;;;;;3.73;2.40;;;14.80;99.90;;;;;;5014766;28;20594;-58
2023/10/30 09:46:02;;;;;;;3.53;2.63;;;14.70;99.90;;;;;;5015633;28;20807;-58
2023/10/30 09:48:32;;;;;;;3.10;2.40;;;14.60;99.90;;;;;;5015301;28;20560;-59
2023/10/30 09:51:00;;;;;;;5.30;2.63;;;14.60;99.90;;;;;;5015396;28;20564;-58
2023/10/30 09:53:29;;;;;;;4.77;2.27;;;14.60;99.90;;;;;;5014223;28;20463;-58
2023/10/30 09:55:59;;;;;;;4.23;3.27;;;14.60;99.90;;;;;;5015673;28;20488;-59
2023/10/30 09:58:26;;;;;;;2.93;1.90;;;14.60;99.90;;;;;;5015014;28;20511;-57
2023/10/30 10:00:53;;;;;;;4.33;2.47;;;14.70;99.90;;;;;;5025767;27;20466;-58
2023/10/30 10:03:21;;;;;;;4.43;2.57;;;14.80;99.90;;;;;;5034999;28;20467;-58
2023/10/30 10:05:56;;;;;;;7.60;2.73;;;14.90;99.90;;;;;;5033691;28;20467;-59
2023/10/30 10:08:24;;;;;;;4.67;2.50;;;15.00;99.90;;;;;;5034730;28;20796;-57
2023/10/30 10:10:56;;;;;;;5.10;2.50;;;15.00;99.90;;;;;;5034920;28;20820;-58
2023/10/30 10:13:24;;;;;;;4.80;2.87;;;15.00;99.90;;;;;;5035010;28;20833;-58
2023/10/30 10:15:52;;;;;;;4.13;2.60;;;15.10;99.90;;;;;;5034649;28;20502;-58
2023/10/30 10:18:27;;;;;;;3.43;2.40;;;15.20;99.90;;;;;;5034827;28;20512;-58
2023/10/30 10:20:58;;;;;;;5.30;3.00;;;15.20;99.90;;;;;;5034501;28;20458;-59
2023/10/30 10:23:26;;;;;;;4.53;2.83;;;15.20;99.90;;;;;;5033458;28;20463;-58
2023/10/30 10:25:56;;;;;;;3.30;2.20;;;15.30;99.90;;;;;;5033326;28;20900;-58
2023/10/30 10:28:24;;;;;;;5.47;2.57;;;15.60;99.90;;;;;;5032909;28;20520;-58
2023/10/30 10:30:52;;;;;;;3.37;2.30;;;15.70;99.90;;;;;;5032884;28;20966;-58
2023/10/30 10:33:21;;;;;;;4.30;2.83;;;15.80;99.90;;;;;;5034141;28;20482;-57
2023/10/30 10:35:52;;;;;;;3.80;2.27;;;16.00;99.90;;;;;;5025627;28;20447;-58
2023/10/30 10:38:19;;;;;;;3.50;2.30;;;16.20;99.90;;;;;;5030624;28;20876;-58
2023/10/30 10:40:47;;;;;;;4.17;2.40;;;16.50;99.90;;;;;;5033057;28;20459;-58
2023/10/30 10:43:18;;;;;;;3.00;2.23;;;16.80;99.90;;;;;;5032832;28;20464;-58
2023/10/30 10:45:47;;;;;;;3.23;2.30;;;17.10;99.90;;;;;;5032243;28;20547;-59
2023/10/30 10:48:14;;;;;;;3.07;1.80;;;16.90;12.10;;;;;;5033252;28;20466;-57
2023/10/30 10:50:42;;;;;;;3.50;2.30;;;16.80;4.00;;;;;;5032932;28;20463;-58
2023/10/30 10:53:11;;;;;;;4.07;1.80;;;16.90;18.10;;;;;;5032351;28;20469;-58
2023/10/30 10:55:42;;;;;;;4.17;2.10;;;17.10;1.00;;;;;;5034051;28;20455;-59
2023/10/30 10:58:12;;;;;;;3.10;2.20;;;17.60;1.00;;;;;;5034056;28;20553;-59
2023/10/30 11:00:47;;;;;;;3.50;1.97;;;18.00;1.00;;;;;;5033474;28;20459;-59
2023/10/30 11:03:15;;;;;;;4.10;1.87;;;18.20;1.00;;;;;;5033861;28;20455;-58
2023/10/30 11:05:44;;;;;;;3.73;1.80;;;18.20;1.00;;;;;;5032892;28;20491;-57
2023/10/30 11:08:33;;;;;;;2.83;1.90;;;18.30;1.00;;;;;;5033718;28;20589;-58
2023/10/30 11:11:09;;;;;;;2.60;1.60;;;18.40;1.00;;;;;;5034047;28;20491;-59
2023/10/30 11:13:45;;;;;;;3.80;1.60;;;18.40;1.00;;;;;;5033902;28;20462;-59
2023/10/30 11:16:20;;;;;;;2.73;1.80;;;18.30;1.00;;;;;;5033927;28;20459;-59
2023/10/30 11:18:50;;;;;;;3.00;1.80;;;17.80;1.00;;;;;;5033990;28;20760;-58
2023/10/30 11:21:19;;;;;;;2.10;1.50;;;17.60;1.00;;;;;;5034086;28;20459;-59
2023/10/30 11:23:55;;;;;;;2.90;1.63;;;17.40;1.00;;;;;;5033429;28;20466;-59
2023/10/30 11:26:39;;;;;;;4.30;1.90;;;17.40;1.00;;;;;;5032857;28;20473;-59
2023/10/30 11:29:09;;;;;;;2.60;2.07;;;17.30;1.00;;;;;;5034307;28;20498;-57
2023/10/30 11:32:05;;;;;;;2.40;1.97;;;17.20;1.00;;;;;;5033949;28;20512;-59
2023/10/30 11:34:34;;;;;;;2.87;1.60;;;17.10;1.00;;;;;;5033024;27;20572;-58
2023/10/30 11:37:09;;;;;;;2.93;1.93;;;17.10;1.00;;;;;;5033932;28;20466;-58
2023/10/30 11:39:38;;;;;;;2.20;1.30;;;16.80;1.00;;;;;;5033418;28;20562;-59
2023/10/30 11:42:29;;;;;;;2.20;1.50;;;16.90;1.00;;;;;;5033365;28;20459;-60
2023/10/30 11:45:18;;;;;;;2.30;1.50;;;16.70;1.00;;;;;;5034104;28;20599;-59
2023/10/30 11:47:49;;;;;;;2.10;1.47;;;16.60;1.00;;;;;;5033383;28;20937;-58
2023/10/30 11:50:19;;;;;;;2.53;1.97;;;16.30;1.00;;;;;;5033323;28;20462;-59
2023/10/30 11:52:47;;;;;;;2.33;1.60;;;16.20;1.00;;;;;;5033381;28;20481;-58
2023/10/30 11:55:17;;;;;;;3.13;1.60;;;16.20;1.00;;;;;;5033709;28;20511;-59
2023/10/30 11:57:45;;;;;;;3.07;1.70;;;16.20;1.00;;;;;;5033342;28;20490;-58
2023/10/30 12:00:14;;;;;;;3.50;1.90;;;16.20;15.80;;;;;;5032805;28;20549;-59
2023/10/30 12:02:42;;;;;;;2.37;1.60;;;16.10;12.10;;;;;;5033434;28;20837;-59
2023/10/30 12:05:12;;;;;;;3.10;1.73;;;16.00;1.00;;;;;;5034916;28;20516;-59
2023/10/30 12:07:39;;;;;;;2.83;1.63;;;15.80;29.40;;;;;;5036259;28;20518;-60
2023/10/30 12:10:08;;;;;;;2.87;1.70;;;15.80;91.70;;;;;;5036548;28;20769;-59
2023/10/30 12:12:36;;;;;;;2.60;1.87;;;15.80;99.90;;;;;;5036785;28;20467;-60
2023/10/30 12:15:04;;;;;;;2.70;1.80;;;15.70;99.90;;;;;;5035276;28;20455;-62
2023/10/30 12:17:32;;;;;;;2.53;1.50;;;15.70;99.90;;;;;;5034658;28;20466;-59
2023/10/30 12:19:59;;;;;;;2.80;1.50;;;15.70;99.90;;;;;;5035108;28;20926;-59
2023/10/30 12:22:28;;;;;;;2.50;1.60;;;15.90;99.90;;;;;;5035491;28;20455;-59
2023/10/30 12:24:56;;;;;;;2.50;1.77;;;16.00;99.90;;;;;;5036411;28;20494;-59
2023/10/30 12:27:23;;;;;;;2.50;1.60;;;16.20;99.90;;;;;;5036466;28;20481;-60
2023/10/30 12:29:56;;;;;;;4.50;2.10;;;16.30;75.50;;;;;;5034322;28;20463;-59
2023/10/30 12:32:26;;;;;;;2.00;1.50;;;16.30;10.30;;;;;;5034468;28;20466;-58
2023/10/30 12:34:54;;;;;;;2.00;1.50;;;16.20;50.90;;;;;;5034941;28;20559;-59
2023/10/30 12:37:23;;;;;;;4.20;1.40;;;16.10;12.40;;;;;;5035080;28;20510;-58
2023/10/30 12:40:07;;;;;;;2.53;1.60;;;16.00;35.80;;;;;;5034998;28;20482;-58
2023/10/30 12:42:36;;;;;;;2.30;1.70;;;16.00;90.20;;;;;;5035318;28;20474;-58
2023/10/30 12:45:09;;;;;;;2.13;1.60;;;16.00;99.90;;;;;;5036188;28;20495;-58
2023/10/30 12:47:36;;;;;;;2.40;2.00;;;15.90;99.90;;;;;;5035907;28;20513;-59
2023/10/30 12:50:04;;;;;;;2.30;1.50;;;15.90;99.90;;;;;;5036044;28;20755;-59
2023/10/30 12:52:31;;;;;;;3.40;1.83;;;16.00;99.90;;;;;;5035933;28;20467;-59
2023/10/30 12:54:59;;;;;;;3.53;1.80;;;15.90;99.90;;;;;;5035707;28;20464;-58